sensor_id;sensor_type;location;lat;lon;timestamp;P1;durP1;ratioP1;P2;durP2;ratioP2
51010;SDS011;37038;50.182;8.624;2024-01-25T00:01:32;32.47;;;8.30;;
51010;SDS011;37038;50.182;8.624;2024-01-25T00:04:25;30.30;;;7.10;;
51010;SDS011;37038;50.182;8.624;2024-01-25T00:07:21;35.05;;;7.90;;
51010;SDS011;37038;50.182;8.624;2024-01-25T00:10:12;36.95;;;7.88;;
51010;SDS011;37038;50.182;8.624;2024-01-25T00:13:01;31.98;;;7.07;;
51010;SDS011;37038;50.182;8.624;2024-01-25T00:15:54;31.30;;;7.20;;
51010;SDS011;37038;50.182;8.624;2024-01-25T00:18:43;33.85;;;8.82;;
51010;SDS011;37038;50.182;8.624;2024-01-25T00:21:40;33.63;;;7.57;;
51010;SDS011;37038;50.182;8.624;2024-01-25T00:24:31;28.65;;;7.50;;
51010;SDS011;37038;50.182;8.624;2024-01-25T00:27:20;25.60;;;6.85;;
51010;SDS011;37038;50.182;8.624;2024-01-25T00:30:09;38.55;;;8.90;;
51010;SDS011;37038;50.182;8.624;2024-01-25T00:32:58;37.35;;;7.82;;
51010;SDS011;37038;50.182;8.624;2024-01-25T00:35:49;35.78;;;7.93;;
51010;SDS011;37038;50.182;8.624;2024-01-25T00:38:41;38.20;;;8.30;;
51010;SDS011;37038;50.182;8.624;2024-01-25T00:41:29;29.08;;;7.60;;
51010;SDS011;37038;50.182;8.624;2024-01-25T00:44:22;29.13;;;7.43;;
51010;SDS011;37038;50.182;8.624;2024-01-25T00:47:13;34.75;;;7.07;;
51010;SDS011;37038;50.182;8.624;2024-01-25T00:50:05;41.47;;;8.30;;
51010;SDS011;37038;50.182;8.624;2024-01-25T00:52:56;38.05;;;8.88;;
51010;SDS011;37038;50.182;8.624;2024-01-25T00:55:47;41.63;;;8.18;;
51010;SDS011;37038;50.182;8.624;2024-01-25T00:58:39;34.42;;;7.15;;
51010;SDS011;37038;50.182;8.624;2024-01-25T01:01:31;35.28;;;7.55;;
51010;SDS011;37038;50.182;8.624;2024-01-25T01:04:22;35.08;;;8.68;;
51010;SDS011;37038;50.182;8.624;2024-01-25T01:07:11;32.80;;;7.20;;
51010;SDS011;37038;50.182;8.624;2024-01-25T01:10:02;31.75;;;6.75;;
51010;SDS011;37038;50.182;8.624;2024-01-25T01:12:54;39.08;;;8.57;;
51010;SDS011;37038;50.182;8.624;2024-01-25T01:15:44;36.43;;;9.07;;
51010;SDS011;37038;50.182;8.624;2024-01-25T01:18:33;34.85;;;8.57;;
51010;SDS011;37038;50.182;8.624;2024-01-25T01:21:26;29.52;;;7.07;;
51010;SDS011;37038;50.182;8.624;2024-01-25T01:24:14;30.13;;;7.80;;
51010;SDS011;37038;50.182;8.624;2024-01-25T01:27:02;35.33;;;7.55;;
51010;SDS011;37038;50.182;8.624;2024-01-25T01:29:51;32.53;;;7.00;;
51010;SDS011;37038;50.182;8.624;2024-01-25T01:32:43;30.25;;;8.35;;
51010;SDS011;37038;50.182;8.624;2024-01-25T01:35:32;27.75;;;7.78;;
51010;SDS011;37038;50.182;8.624;2024-01-25T01:38:28;38.72;;;8.63;;
51010;SDS011;37038;50.182;8.624;2024-01-25T01:41:19;39.20;;;8.00;;
51010;SDS011;37038;50.182;8.624;2024-01-25T01:44:12;33.13;;;7.30;;
51010;SDS011;37038;50.182;8.624;2024-01-25T01:47:07;48.58;;;8.60;;
51010;SDS011;37038;50.182;8.624;2024-01-25T01:49:56;23.13;;;6.65;;
51010;SDS011;37038;50.182;8.624;2024-01-25T01:52:45;31.67;;;6.75;;
51010;SDS011;37038;50.182;8.624;2024-01-25T01:55:40;33.20;;;7.80;;
51010;SDS011;37038;50.182;8.624;2024-01-25T01:58:29;34.67;;;7.85;;
51010;SDS011;37038;50.182;8.624;2024-01-25T02:01:20;40.47;;;9.10;;
51010;SDS011;37038;50.182;8.624;2024-01-25T02:04:18;29.55;;;6.85;;
51010;SDS011;37038;50.182;8.624;2024-01-25T02:07:09;28.25;;;6.97;;
51010;SDS011;37038;50.182;8.624;2024-01-25T02:10:01;34.08;;;7.65;;
51010;SDS011;37038;50.182;8.624;2024-01-25T02:12:49;31.65;;;7.50;;
51010;SDS011;37038;50.182;8.624;2024-01-25T02:15:38;39.88;;;7.55;;
51010;SDS011;37038;50.182;8.624;2024-01-25T02:18:28;36.65;;;7.38;;
51010;SDS011;37038;50.182;8.624;2024-01-25T02:21:20;28.75;;;8.38;;
51010;SDS011;37038;50.182;8.624;2024-01-25T02:24:08;42.15;;;8.65;;
51010;SDS011;37038;50.182;8.624;2024-01-25T02:27:00;33.35;;;7.13;;
51010;SDS011;37038;50.182;8.624;2024-01-25T02:29:54;34.35;;;8.05;;
51010;SDS011;37038;50.182;8.624;2024-01-25T02:32:42;29.20;;;7.25;;
51010;SDS011;37038;50.182;8.624;2024-01-25T02:35:31;36.90;;;7.43;;
51010;SDS011;37038;50.182;8.624;2024-01-25T02:38:20;34.67;;;7.63;;
51010;SDS011;37038;50.182;8.624;2024-01-25T02:41:09;39.15;;;8.65;;
51010;SDS011;37038;50.182;8.624;2024-01-25T02:43:57;38.55;;;8.98;;
51010;SDS011;37038;50.182;8.624;2024-01-25T02:46:56;35.95;;;8.30;;
51010;SDS011;37038;50.182;8.624;2024-01-25T02:49:51;52.13;;;10.05;;
51010;SDS011;37038;50.182;8.624;2024-01-25T02:52:53;30.02;;;7.65;;
51010;SDS011;37038;50.182;8.624;2024-01-25T02:55:42;28.98;;;8.02;;
51010;SDS011;37038;50.182;8.624;2024-01-25T02:58:35;28.48;;;6.30;;
51010;SDS011;37038;50.182;8.624;2024-01-25T03:01:25;28.90;;;8.10;;
51010;SDS011;37038;50.182;8.624;2024-01-25T03:04:14;22.88;;;6.35;;
51010;SDS011;37038;50.182;8.624;2024-01-25T03:07:04;36.55;;;8.00;;
51010;SDS011;37038;50.182;8.624;2024-01-25T03:09:52;45.33;;;7.53;;
51010;SDS011;37038;50.182;8.624;2024-01-25T03:12:40;25.02;;;7.13;;
51010;SDS011;37038;50.182;8.624;2024-01-25T03:15:31;39.63;;;9.23;;
51010;SDS011;37038;50.182;8.624;2024-01-25T03:18:21;41.03;;;8.77;;
51010;SDS011;37038;50.182;8.624;2024-01-25T03:21:12;32.95;;;8.30;;
51010;SDS011;37038;50.182;8.624;2024-01-25T03:24:01;33.50;;;7.53;;
51010;SDS011;37038;50.182;8.624;2024-01-25T03:26:49;34.20;;;7.15;;
51010;SDS011;37038;50.182;8.624;2024-01-25T03:29:40;38.03;;;8.60;;
51010;SDS011;37038;50.182;8.624;2024-01-25T03:32:30;33.70;;;7.75;;
51010;SDS011;37038;50.182;8.624;2024-01-25T03:35:21;36.10;;;7.80;;
51010;SDS011;37038;50.182;8.624;2024-01-25T03:38:10;33.35;;;6.70;;
51010;SDS011;37038;50.182;8.624;2024-01-25T03:41:01;30.92;;;7.38;;
51010;SDS011;37038;50.182;8.624;2024-01-25T03:43:51;30.35;;;7.32;;
51010;SDS011;37038;50.182;8.624;2024-01-25T03:46:39;30.42;;;6.68;;
51010;SDS011;37038;50.182;8.624;2024-01-25T03:49:30;36.90;;;8.15;;
51010;SDS011;37038;50.182;8.624;2024-01-25T03:52:22;32.92;;;8.73;;
51010;SDS011;37038;50.182;8.624;2024-01-25T03:55:10;33.80;;;8.07;;
51010;SDS011;37038;50.182;8.624;2024-01-25T03:57:58;32.63;;;8.00;;
51010;SDS011;37038;50.182;8.624;2024-01-25T04:00:47;26.92;;;6.40;;
51010;SDS011;37038;50.182;8.624;2024-01-25T04:03:36;28.75;;;7.40;;
51010;SDS011;37038;50.182;8.624;2024-01-25T04:06:24;30.23;;;8.23;;
51010;SDS011;37038;50.182;8.624;2024-01-25T04:09:15;27.27;;;7.38;;
51010;SDS011;37038;50.182;8.624;2024-01-25T04:12:04;31.45;;;7.88;;
51010;SDS011;37038;50.182;8.624;2024-01-25T04:14:52;21.30;;;7.40;;
51010;SDS011;37038;50.182;8.624;2024-01-25T04:17:40;34.85;;;8.73;;
51010;SDS011;37038;50.182;8.624;2024-01-25T04:20:29;33.47;;;7.50;;
51010;SDS011;37038;50.182;8.624;2024-01-25T04:23:19;27.77;;;6.93;;
51010;SDS011;37038;50.182;8.624;2024-01-25T04:26:07;31.60;;;7.65;;
51010;SDS011;37038;50.182;8.624;2024-01-25T04:28:58;32.95;;;8.35;;
51010;SDS011;37038;50.182;8.624;2024-01-25T04:31:49;33.47;;;7.68;;
51010;SDS011;37038;50.182;8.624;2024-01-25T04:34:37;31.60;;;7.90;;
51010;SDS011;37038;50.182;8.624;2024-01-25T04:37:26;30.77;;;7.82;;
51010;SDS011;37038;50.182;8.624;2024-01-25T04:40:14;25.98;;;7.60;;
51010;SDS011;37038;50.182;8.624;2024-01-25T04:43:03;30.13;;;8.18;;
51010;SDS011;37038;50.182;8.624;2024-01-25T04:45:51;45.25;;;9.35;;
51010;SDS011;37038;50.182;8.624;2024-01-25T04:48:42;34.72;;;8.43;;
51010;SDS011;37038;50.182;8.624;2024-01-25T04:51:33;32.35;;;7.60;;
51010;SDS011;37038;50.182;8.624;2024-01-25T04:54:21;34.22;;;8.02;;
51010;SDS011;37038;50.182;8.624;2024-01-25T04:57:16;27.75;;;7.45;;
51010;SDS011;37038;50.182;8.624;2024-01-25T05:00:04;31.55;;;7.38;;
51010;SDS011;37038;50.182;8.624;2024-01-25T05:02:57;29.13;;;6.65;;
51010;SDS011;37038;50.182;8.624;2024-01-25T05:05:48;40.63;;;7.68;;
51010;SDS011;37038;50.182;8.624;2024-01-25T05:08:41;37.63;;;8.40;;
51010;SDS011;37038;50.182;8.624;2024-01-25T05:11:38;35.95;;;8.57;;
51010;SDS011;37038;50.182;8.624;2024-01-25T05:14:27;37.38;;;9.02;;
51010;SDS011;37038;50.182;8.624;2024-01-25T05:17:15;38.88;;;9.55;;
51010;SDS011;37038;50.182;8.624;2024-01-25T05:20:04;43.97;;;8.85;;
51010;SDS011;37038;50.182;8.624;2024-01-25T05:22:55;34.85;;;9.40;;
51010;SDS011;37038;50.182;8.624;2024-01-25T05:25:43;44.08;;;10.25;;
51010;SDS011;37038;50.182;8.624;2024-01-25T05:28:31;31.25;;;8.07;;
51010;SDS011;37038;50.182;8.624;2024-01-25T05:31:20;33.05;;;7.90;;
51010;SDS011;37038;50.182;8.624;2024-01-25T05:34:09;34.90;;;7.38;;
51010;SDS011;37038;50.182;8.624;2024-01-25T05:36:58;46.83;;;10.70;;
51010;SDS011;37038;50.182;8.624;2024-01-25T05:39:49;47.85;;;10.63;;
51010;SDS011;37038;50.182;8.624;2024-01-25T05:42:39;38.65;;;9.93;;
51010;SDS011;37038;50.182;8.624;2024-01-25T05:45:31;35.58;;;8.88;;
51010;SDS011;37038;50.182;8.624;2024-01-25T05:48:21;44.97;;;10.23;;
51010;SDS011;37038;50.182;8.624;2024-01-25T05:51:13;35.00;;;9.95;;
51010;SDS011;37038;50.182;8.624;2024-01-25T05:54:01;44.47;;;10.80;;
51010;SDS011;37038;50.182;8.624;2024-01-25T05:56:55;43.65;;;10.77;;
51010;SDS011;37038;50.182;8.624;2024-01-25T05:59:44;37.92;;;9.50;;
51010;SDS011;37038;50.182;8.624;2024-01-25T06:05:26;37.53;;;8.38;;
51010;SDS011;37038;50.182;8.624;2024-01-25T06:08:15;37.55;;;10.13;;
51010;SDS011;37038;50.182;8.624;2024-01-25T06:11:04;44.42;;;10.95;;
51010;SDS011;37038;50.182;8.624;2024-01-25T06:13:55;39.80;;;10.07;;
51010;SDS011;37038;50.182;8.624;2024-01-25T06:16:49;29.08;;;10.48;;
51010;SDS011;37038;50.182;8.624;2024-01-25T06:19:39;44.67;;;10.48;;
51010;SDS011;37038;50.182;8.624;2024-01-25T06:22:30;39.28;;;11.32;;
51010;SDS011;37038;50.182;8.624;2024-01-25T06:25:21;42.85;;;10.98;;
51010;SDS011;37038;50.182;8.624;2024-01-25T06:28:10;39.08;;;10.18;;
51010;SDS011;37038;50.182;8.624;2024-01-25T06:31:00;44.53;;;11.02;;
51010;SDS011;37038;50.182;8.624;2024-01-25T06:33:49;36.72;;;9.43;;
51010;SDS011;37038;50.182;8.624;2024-01-25T06:36:40;45.88;;;9.25;;
51010;SDS011;37038;50.182;8.624;2024-01-25T06:39:31;44.95;;;10.05;;
51010;SDS011;37038;50.182;8.624;2024-01-25T06:42:20;47.42;;;10.23;;
51010;SDS011;37038;50.182;8.624;2024-01-25T06:45:17;38.85;;;9.02;;
51010;SDS011;37038;50.182;8.624;2024-01-25T06:48:09;43.28;;;11.13;;
51010;SDS011;37038;50.182;8.624;2024-01-25T06:51:19;42.58;;;9.07;;
51010;SDS011;37038;50.182;8.624;2024-01-25T06:54:54;35.20;;;9.63;;
51010;SDS011;37038;50.182;8.624;2024-01-25T06:57:53;34.40;;;9.70;;
51010;SDS011;37038;50.182;8.624;2024-01-25T07:03:40;38.05;;;9.40;;
51010;SDS011;37038;50.182;8.624;2024-01-25T07:06:59;43.88;;;10.60;;
51010;SDS011;37038;50.182;8.624;2024-01-25T07:14:00;37.08;;;9.55;;
51010;SDS011;37038;50.182;8.624;2024-01-25T07:17:00;47.80;;;10.52;;
51010;SDS011;37038;50.182;8.624;2024-01-25T07:19:58;36.33;;;9.27;;
51010;SDS011;37038;50.182;8.624;2024-01-25T07:22:47;52.00;;;10.00;;
51010;SDS011;37038;50.182;8.624;2024-01-25T07:25:41;39.60;;;8.98;;
51010;SDS011;37038;50.182;8.624;2024-01-25T07:28:52;40.22;;;10.68;;
51010;SDS011;37038;50.182;8.624;2024-01-25T07:32:23;53.38;;;11.60;;
51010;SDS011;37038;50.182;8.624;2024-01-25T07:35:57;39.90;;;9.93;;
51010;SDS011;37038;50.182;8.624;2024-01-25T07:39:41;36.03;;;8.73;;
51010;SDS011;37038;50.182;8.624;2024-01-25T07:42:32;36.83;;;8.95;;
51010;SDS011;37038;50.182;8.624;2024-01-25T07:45:21;37.65;;;10.27;;
51010;SDS011;37038;50.182;8.624;2024-01-25T07:48:12;41.22;;;10.48;;
51010;SDS011;37038;50.182;8.624;2024-01-25T07:51:22;42.72;;;9.90;;
51010;SDS011;37038;50.182;8.624;2024-01-25T07:54:24;45.20;;;10.30;;
51010;SDS011;37038;50.182;8.624;2024-01-25T07:57:15;49.70;;;9.65;;
51010;SDS011;37038;50.182;8.624;2024-01-25T08:00:46;44.03;;;9.80;;
51010;SDS011;37038;50.182;8.624;2024-01-25T08:07:53;40.80;;;9.52;;
51010;SDS011;37038;50.182;8.624;2024-01-25T08:11:11;40.22;;;8.73;;
51010;SDS011;37038;50.182;8.624;2024-01-25T08:14:15;35.55;;;8.95;;
51010;SDS011;37038;50.182;8.624;2024-01-25T08:17:31;37.33;;;9.35;;
51010;SDS011;37038;50.182;8.624;2024-01-25T08:21:04;36.75;;;9.30;;
51010;SDS011;37038;50.182;8.624;2024-01-25T08:24:03;42.17;;;9.38;;
51010;SDS011;37038;50.182;8.624;2024-01-25T08:27:19;43.45;;;9.40;;
51010;SDS011;37038;50.182;8.624;2024-01-25T08:30:27;37.58;;;8.90;;
51010;SDS011;37038;50.182;8.624;2024-01-25T08:33:31;59.25;;;9.95;;
51010;SDS011;37038;50.182;8.624;2024-01-25T08:36:26;43.10;;;10.35;;
51010;SDS011;37038;50.182;8.624;2024-01-25T08:39:19;42.03;;;10.88;;
51010;SDS011;37038;50.182;8.624;2024-01-25T08:42:26;34.45;;;9.23;;
51010;SDS011;37038;50.182;8.624;2024-01-25T08:45:25;45.50;;;10.70;;
51010;SDS011;37038;50.182;8.624;2024-01-25T08:48:26;44.38;;;10.20;;
51010;SDS011;37038;50.182;8.624;2024-01-25T08:51:45;31.27;;;9.10;;
51010;SDS011;37038;50.182;8.624;2024-01-25T08:54:36;39.20;;;10.05;;
51010;SDS011;37038;50.182;8.624;2024-01-25T09:02:58;44.33;;;10.63;;
51010;SDS011;37038;50.182;8.624;2024-01-25T09:05:51;38.78;;;10.45;;
51010;SDS011;37038;50.182;8.624;2024-01-25T09:08:46;43.15;;;10.35;;
51010;SDS011;37038;50.182;8.624;2024-01-25T09:15:07;37.72;;;9.77;;
51010;SDS011;37038;50.182;8.624;2024-01-25T09:18:50;37.63;;;10.70;;
51010;SDS011;37038;50.182;8.624;2024-01-25T09:22:23;37.63;;;10.05;;
51010;SDS011;37038;50.182;8.624;2024-01-25T09:25:15;40.22;;;10.43;;
51010;SDS011;37038;50.182;8.624;2024-01-25T09:28:04;42.20;;;9.63;;
51010;SDS011;37038;50.182;8.624;2024-01-25T09:30:58;34.60;;;9.18;;
51010;SDS011;37038;50.182;8.624;2024-01-25T09:33:50;43.28;;;9.55;;
51010;SDS011;37038;50.182;8.624;2024-01-25T09:36:49;35.58;;;10.10;;
51010;SDS011;37038;50.182;8.624;2024-01-25T09:39:38;34.33;;;9.20;;
51010;SDS011;37038;50.182;8.624;2024-01-25T09:42:26;43.67;;;10.27;;
51010;SDS011;37038;50.182;8.624;2024-01-25T09:45:39;36.92;;;10.32;;
51010;SDS011;37038;50.182;8.624;2024-01-25T09:49:05;49.40;;;9.60;;
51010;SDS011;37038;50.182;8.624;2024-01-25T09:52:37;40.72;;;11.23;;
51010;SDS011;37038;50.182;8.624;2024-01-25T09:59:31;41.67;;;9.50;;
51010;SDS011;37038;50.182;8.624;2024-01-25T10:06:15;42.25;;;9.55;;
51010;SDS011;37038;50.182;8.624;2024-01-25T10:09:10;34.95;;;9.98;;
51010;SDS011;37038;50.182;8.624;2024-01-25T10:24:35;34.17;;;10.30;;
51010;SDS011;37038;50.182;8.624;2024-01-25T10:28:01;37.42;;;10.85;;
51010;SDS011;37038;50.182;8.624;2024-01-25T10:36:26;30.37;;;9.57;;
51010;SDS011;37038;50.182;8.624;2024-01-25T10:39:29;37.92;;;10.23;;
51010;SDS011;37038;50.182;8.624;2024-01-25T10:47:39;38.53;;;8.88;;
51010;SDS011;37038;50.182;8.624;2024-01-25T10:58:48;44.45;;;9.23;;
51010;SDS011;37038;50.182;8.624;2024-01-25T11:04:31;30.88;;;9.20;;
51010;SDS011;37038;50.182;8.624;2024-01-25T11:11:32;39.90;;;9.32;;
51010;SDS011;37038;50.182;8.624;2024-01-25T11:14:25;33.72;;;8.88;;
51010;SDS011;37038;50.182;8.624;2024-01-25T11:17:19;43.75;;;9.93;;
51010;SDS011;37038;50.182;8.624;2024-01-25T11:20:13;30.25;;;8.63;;
51010;SDS011;37038;50.182;8.624;2024-01-25T11:23:05;32.97;;;8.93;;
51010;SDS011;37038;50.182;8.624;2024-01-25T11:26:02;41.05;;;9.65;;
51010;SDS011;37038;50.182;8.624;2024-01-25T11:28:59;29.70;;;9.43;;
51010;SDS011;37038;50.182;8.624;2024-01-25T11:31:50;37.80;;;9.15;;
51010;SDS011;37038;50.182;8.624;2024-01-25T11:34:43;35.83;;;8.95;;
51010;SDS011;37038;50.182;8.624;2024-01-25T11:37:35;36.53;;;9.52;;
51010;SDS011;37038;50.182;8.624;2024-01-25T11:40:28;26.45;;;7.30;;
51010;SDS011;37038;50.182;8.624;2024-01-25T11:43:24;38.95;;;8.75;;
51010;SDS011;37038;50.182;8.624;2024-01-25T11:46:16;38.65;;;9.05;;
51010;SDS011;37038;50.182;8.624;2024-01-25T11:49:10;33.58;;;9.20;;
51010;SDS011;37038;50.182;8.624;2024-01-25T11:51:59;42.10;;;9.63;;
51010;SDS011;37038;50.182;8.624;2024-01-25T11:54:50;37.20;;;8.23;;
51010;SDS011;37038;50.182;8.624;2024-01-25T11:57:40;37.83;;;7.95;;
51010;SDS011;37038;50.182;8.624;2024-01-25T12:00:52;33.30;;;8.35;;
51010;SDS011;37038;50.182;8.624;2024-01-25T12:03:59;43.00;;;9.70;;
51010;SDS011;37038;50.182;8.624;2024-01-25T12:12:29;33.63;;;8.80;;
51010;SDS011;37038;50.182;8.624;2024-01-25T12:15:49;32.67;;;9.02;;
51010;SDS011;37038;50.182;8.624;2024-01-25T12:18:53;40.88;;;8.55;;
51010;SDS011;37038;50.182;8.624;2024-01-25T12:21:56;38.08;;;7.25;;
51010;SDS011;37038;50.182;8.624;2024-01-25T12:29:43;33.70;;;7.68;;
51010;SDS011;37038;50.182;8.624;2024-01-25T12:32:47;35.08;;;8.48;;
51010;SDS011;37038;50.182;8.624;2024-01-25T12:35:55;33.25;;;8.55;;
51010;SDS011;37038;50.182;8.624;2024-01-25T12:38:57;33.13;;;8.43;;
51010;SDS011;37038;50.182;8.624;2024-01-25T12:45:44;28.23;;;7.45;;
51010;SDS011;37038;50.182;8.624;2024-01-25T12:49:18;32.00;;;7.72;;
51010;SDS011;37038;50.182;8.624;2024-01-25T12:52:51;27.75;;;7.82;;
51010;SDS011;37038;50.182;8.624;2024-01-25T12:56:07;28.30;;;7.32;;
51010;SDS011;37038;50.182;8.624;2024-01-25T12:59:32;29.45;;;7.78;;
51010;SDS011;37038;50.182;8.624;2024-01-25T13:02:43;25.52;;;7.57;;
51010;SDS011;37038;50.182;8.624;2024-01-25T13:05:55;30.05;;;7.30;;
51010;SDS011;37038;50.182;8.624;2024-01-25T13:13:47;36.00;;;8.07;;
51010;SDS011;37038;50.182;8.624;2024-01-25T13:16:39;33.22;;;8.05;;
51010;SDS011;37038;50.182;8.624;2024-01-25T13:23:59;29.83;;;7.00;;
51010;SDS011;37038;50.182;8.624;2024-01-25T13:32:59;35.33;;;8.23;;
51010;SDS011;37038;50.182;8.624;2024-01-25T13:41:19;29.73;;;8.25;;
51010;SDS011;37038;50.182;8.624;2024-01-25T13:44:53;26.38;;;7.13;;
51010;SDS011;37038;50.182;8.624;2024-01-25T13:53:33;32.17;;;8.48;;
51010;SDS011;37038;50.182;8.624;2024-01-25T13:56:43;29.15;;;7.68;;
51010;SDS011;37038;50.182;8.624;2024-01-25T14:00:46;30.17;;;6.53;;
51010;SDS011;37038;50.182;8.624;2024-01-25T14:04:04;34.70;;;6.72;;
51010;SDS011;37038;50.182;8.624;2024-01-25T14:07:00;30.90;;;8.00;;
51010;SDS011;37038;50.182;8.624;2024-01-25T14:10:09;27.58;;;8.10;;
51010;SDS011;37038;50.182;8.624;2024-01-25T14:13:24;24.95;;;6.55;;
51010;SDS011;37038;50.182;8.624;2024-01-25T14:24:46;25.50;;;7.23;;
51010;SDS011;37038;50.182;8.624;2024-01-25T14:27:51;29.48;;;7.18;;
51010;SDS011;37038;50.182;8.624;2024-01-25T14:30:52;26.80;;;7.13;;
51010;SDS011;37038;50.182;8.624;2024-01-25T14:33:48;25.23;;;7.60;;
51010;SDS011;37038;50.182;8.624;2024-01-25T14:36:59;22.08;;;7.18;;
51010;SDS011;37038;50.182;8.624;2024-01-25T14:40:17;26.52;;;6.70;;
51010;SDS011;37038;50.182;8.624;2024-01-25T14:43:35;27.45;;;6.65;;
51010;SDS011;37038;50.182;8.624;2024-01-25T14:47:02;34.60;;;7.85;;
51010;SDS011;37038;50.182;8.624;2024-01-25T14:50:10;31.08;;;7.28;;
51010;SDS011;37038;50.182;8.624;2024-01-25T14:56:39;30.25;;;7.50;;
51010;SDS011;37038;50.182;8.624;2024-01-25T15:00:03;24.67;;;6.40;;
51010;SDS011;37038;50.182;8.624;2024-01-25T15:03:01;28.85;;;7.90;;
51010;SDS011;37038;50.182;8.624;2024-01-25T15:06:35;39.45;;;7.85;;
51010;SDS011;37038;50.182;8.624;2024-01-25T15:09:57;33.20;;;7.25;;
51010;SDS011;37038;50.182;8.624;2024-01-25T15:13:02;21.10;;;6.88;;
51010;SDS011;37038;50.182;8.624;2024-01-25T15:16:02;31.75;;;7.63;;
51010;SDS011;37038;50.182;8.624;2024-01-25T15:19:08;30.67;;;8.00;;
51010;SDS011;37038;50.182;8.624;2024-01-25T15:22:23;40.65;;;9.50;;
51010;SDS011;37038;50.182;8.624;2024-01-25T15:25:45;26.27;;;7.40;;
51010;SDS011;37038;50.182;8.624;2024-01-25T15:46:42;34.53;;;8.02;;
51010;SDS011;37038;50.182;8.624;2024-01-25T15:53:08;36.20;;;8.13;;
51010;SDS011;37038;50.182;8.624;2024-01-25T16:00:09;34.55;;;8.70;;
51010;SDS011;37038;50.182;8.624;2024-01-25T16:03:29;34.20;;;8.77;;
51010;SDS011;37038;50.182;8.624;2024-01-25T16:10:44;33.97;;;9.10;;
51010;SDS011;37038;50.182;8.624;2024-01-25T16:14:01;34.05;;;9.70;;
51010;SDS011;37038;50.182;8.624;2024-01-25T16:21:21;42.70;;;9.98;;
51010;SDS011;37038;50.182;8.624;2024-01-25T16:28:32;30.02;;;10.05;;
51010;SDS011;37038;50.182;8.624;2024-01-25T16:31:20;29.55;;;8.43;;
51010;SDS011;37038;50.182;8.624;2024-01-25T16:34:08;38.35;;;8.82;;
51010;SDS011;37038;50.182;8.624;2024-01-25T16:37:00;35.75;;;9.30;;
51010;SDS011;37038;50.182;8.624;2024-01-25T16:39:48;35.70;;;9.45;;
51010;SDS011;37038;50.182;8.624;2024-01-25T16:42:38;39.58;;;9.30;;
51010;SDS011;37038;50.182;8.624;2024-01-25T16:45:29;26.83;;;8.27;;
51010;SDS011;37038;50.182;8.624;2024-01-25T16:48:17;31.77;;;9.02;;
51010;SDS011;37038;50.182;8.624;2024-01-25T16:51:09;33.03;;;9.32;;
51010;SDS011;37038;50.182;8.624;2024-01-25T16:53:57;33.45;;;9.80;;
51010;SDS011;37038;50.182;8.624;2024-01-25T16:56:45;30.15;;;8.20;;
51010;SDS011;37038;50.182;8.624;2024-01-25T16:59:36;37.33;;;9.70;;
51010;SDS011;37038;50.182;8.624;2024-01-25T17:02:24;33.05;;;9.73;;
51010;SDS011;37038;50.182;8.624;2024-01-25T17:05:15;34.42;;;9.55;;
51010;SDS011;37038;50.182;8.624;2024-01-25T17:08:06;32.53;;;9.02;;
51010;SDS011;37038;50.182;8.624;2024-01-25T17:10:54;35.75;;;10.05;;
51010;SDS011;37038;50.182;8.624;2024-01-25T17:13:45;33.47;;;9.68;;
51010;SDS011;37038;50.182;8.624;2024-01-25T17:16:36;26.25;;;9.18;;
51010;SDS011;37038;50.182;8.624;2024-01-25T17:19:26;32.23;;;10.43;;
51010;SDS011;37038;50.182;8.624;2024-01-25T17:22:17;46.42;;;12.77;;
51010;SDS011;37038;50.182;8.624;2024-01-25T17:25:13;34.05;;;11.60;;
51010;SDS011;37038;50.182;8.624;2024-01-25T17:28:02;32.83;;;11.57;;
51010;SDS011;37038;50.182;8.624;2024-01-25T17:30:54;45.20;;;12.77;;
51010;SDS011;37038;50.182;8.624;2024-01-25T17:41:33;37.83;;;11.35;;
51010;SDS011;37038;50.182;8.624;2024-01-25T17:44:30;39.53;;;11.82;;
51010;SDS011;37038;50.182;8.624;2024-01-25T17:47:25;49.97;;;12.10;;
51010;SDS011;37038;50.182;8.624;2024-01-25T17:50:16;29.83;;;11.25;;
51010;SDS011;37038;50.182;8.624;2024-01-25T17:53:04;35.70;;;11.18;;
51010;SDS011;37038;50.182;8.624;2024-01-25T17:55:59;43.60;;;11.45;;
51010;SDS011;37038;50.182;8.624;2024-01-25T17:58:53;41.22;;;11.60;;
51010;SDS011;37038;50.182;8.624;2024-01-25T18:01:55;39.22;;;10.82;;
51010;SDS011;37038;50.182;8.624;2024-01-25T18:04:49;39.30;;;10.30;;
51010;SDS011;37038;50.182;8.624;2024-01-25T18:07:38;35.28;;;11.10;;
51010;SDS011;37038;50.182;8.624;2024-01-25T18:10:39;45.58;;;11.60;;
51010;SDS011;37038;50.182;8.624;2024-01-25T18:13:31;41.95;;;12.02;;
51010;SDS011;37038;50.182;8.624;2024-01-25T18:16:25;42.25;;;11.63;;
51010;SDS011;37038;50.182;8.624;2024-01-25T18:19:26;38.53;;;11.60;;
51010;SDS011;37038;50.182;8.624;2024-01-25T18:22:31;35.97;;;10.50;;
51010;SDS011;37038;50.182;8.624;2024-01-25T18:25:33;37.00;;;11.20;;
51010;SDS011;37038;50.182;8.624;2024-01-25T18:29:36;41.30;;;12.55;;
51010;SDS011;37038;50.182;8.624;2024-01-25T18:32:33;28.80;;;10.90;;
51010;SDS011;37038;50.182;8.624;2024-01-25T18:35:37;39.45;;;12.82;;
51010;SDS011;37038;50.182;8.624;2024-01-25T18:38:26;43.92;;;12.57;;
51010;SDS011;37038;50.182;8.624;2024-01-25T18:41:21;32.45;;;12.93;;
51010;SDS011;37038;50.182;8.624;2024-01-25T18:44:10;32.60;;;13.27;;
51010;SDS011;37038;50.182;8.624;2024-01-25T18:46:59;38.80;;;12.73;;
51010;SDS011;37038;50.182;8.624;2024-01-25T18:49:49;44.67;;;14.27;;
51010;SDS011;37038;50.182;8.624;2024-01-25T18:52:39;42.20;;;13.90;;
51010;SDS011;37038;50.182;8.624;2024-01-25T18:55:28;44.22;;;12.82;;
51010;SDS011;37038;50.182;8.624;2024-01-25T18:58:26;40.00;;;13.30;;
51010;SDS011;37038;50.182;8.624;2024-01-25T19:01:30;38.10;;;11.98;;
51010;SDS011;37038;50.182;8.624;2024-01-25T19:04:56;46.28;;;13.02;;
51010;SDS011;37038;50.182;8.624;2024-01-25T19:07:55;36.85;;;12.27;;
51010;SDS011;37038;50.182;8.624;2024-01-25T19:10:43;31.88;;;10.45;;
51010;SDS011;37038;50.182;8.624;2024-01-25T19:13:36;32.20;;;10.30;;
51010;SDS011;37038;50.182;8.624;2024-01-25T19:16:38;39.88;;;11.05;;
51010;SDS011;37038;50.182;8.624;2024-01-25T19:19:54;38.08;;;11.45;;
51010;SDS011;37038;50.182;8.624;2024-01-25T19:22:55;34.13;;;11.32;;
51010;SDS011;37038;50.182;8.624;2024-01-25T19:25:44;37.25;;;10.88;;
51010;SDS011;37038;50.182;8.624;2024-01-25T19:28:39;33.65;;;11.55;;
51010;SDS011;37038;50.182;8.624;2024-01-25T19:32:11;33.35;;;10.27;;
51010;SDS011;37038;50.182;8.624;2024-01-25T19:39:00;40.63;;;11.55;;
51010;SDS011;37038;50.182;8.624;2024-01-25T19:41:59;41.65;;;12.95;;
51010;SDS011;37038;50.182;8.624;2024-01-25T19:45:36;33.15;;;10.98;;
51010;SDS011;37038;50.182;8.624;2024-01-25T19:48:28;41.08;;;11.27;;
51010;SDS011;37038;50.182;8.624;2024-01-25T19:51:31;45.90;;;12.00;;
51010;SDS011;37038;50.182;8.624;2024-01-25T19:54:24;44.08;;;12.23;;
51010;SDS011;37038;50.182;8.624;2024-01-25T19:57:17;46.53;;;12.35;;
51010;SDS011;37038;50.182;8.624;2024-01-25T20:00:11;37.40;;;12.30;;
51010;SDS011;37038;50.182;8.624;2024-01-25T20:03:09;45.05;;;12.70;;
51010;SDS011;37038;50.182;8.624;2024-01-25T20:06:00;40.70;;;12.65;;
51010;SDS011;37038;50.182;8.624;2024-01-25T20:08:49;36.05;;;13.30;;
51010;SDS011;37038;50.182;8.624;2024-01-25T20:11:37;46.67;;;16.17;;
51010;SDS011;37038;50.182;8.624;2024-01-25T20:14:46;45.35;;;15.35;;
51010;SDS011;37038;50.182;8.624;2024-01-25T20:17:45;57.65;;;14.60;;
51010;SDS011;37038;50.182;8.624;2024-01-25T20:20:35;45.08;;;15.35;;